Time,TemperatureF,DewpointF,PressureIn,WindDirection,WindDirectionDegrees,WindSpeedMPH,WindSpeedGustMPH,Humidity,HourlyPrecipIn,Conditions,Clouds,dailyrainin,SoftwareType,DateUTC
2013-06-14 00:12:00,54.0,46.0,30.10,NE,40,2.0,-999.0,73,-99.99,,,-99.99,,2013-06-14 04:12:00,
2013-06-14 00:22:00,54.0,46.0,30.10,NE,40,2.0,-999.0,73,-99.99,,,-99.99,,2013-06-14 04:22:00,
2013-06-14 00:33:00,56.0,45.0,30.10,NNE,28,1.0,-999.0,67,-99.99,,,-99.99,,2013-06-14 04:33:00,
2013-06-14 00:43:00,57.0,45.0,30.11,NNE,27,1.0,-999.0,65,-99.99,,,-99.99,,2013-06-14 04:43:00,
2013-06-14 00:53:00,57.0,45.0,30.11,NNE,13,2.0,-999.0,65,-99.99,,,-99.99,,2013-06-14 04:53:00,
2013-06-14 01:02:00,57.0,45.0,30.11,NNE,13,2.0,-999.0,65,-99.99,,,-99.99,,2013-06-14 05:02:00,
2013-06-14 01:11:00,57.0,45.0,30.12,North,355,4.0,-999.0,65,-99.99,,,-99.99,,2013-06-14 05:11:00,
2013-06-14 01:22:00,56.0,44.0,30.12,NE,41,4.0,-999.0,65,-99.99,,,-99.99,,2013-06-14 05:22:00,
2013-06-14 01:34:00,56.0,44.0,30.12,NE,41,4.0,-999.0,65,-99.99,,,-99.99,,2013-06-14 05:34:00,
2013-06-14 01:43:00,56.0,44.0,30.12,NE,50,6.0,-999.0,64,-99.99,,,-99.99,,2013-06-14 05:43:00,
2013-06-14 01:52:00,56.0,44.0,30.12,NE,50,6.0,-999.0,64,-99.99,,,-99.99,,2013-06-14 05:52:00,
2013-06-14 02:02:00,56.0,44.0,30.12,NE,38,5.0,-999.0,65,-99.99,,,-99.99,,2013-06-14 06:02:00,
2013-06-14 02:12:00,56.0,43.0,30.12,ENE,64,8.0,-999.0,61,-99.99,,,-99.99,,2013-06-14 06:12:00,
2013-06-14 02:22:00,55.0,42.0,30.14,NE,43,3.0,-999.0,62,-99.99,,,-99.99,,2013-06-14 06:22:00,
2013-06-14 02:33:00,55.0,42.0,30.14,NE,43,3.0,-999.0,62,-99.99,,,-99.99,,2013-06-14 06:33:00,
2013-06-14 02:43:00,55.0,42.0,30.14,NE,48,3.0,-999.0,61,-99.99,,,-99.99,,2013-06-14 06:43:00,
2013-06-14 02:52:00,54.0,40.0,30.14,NNE,24,3.0,-999.0,60,-99.99,,,-99.99,,2013-06-14 06:52:00,
2013-06-14 03:02:00,54.0,40.0,30.14,NNE,24,3.0,-999.0,60,-99.99,,,-99.99,,2013-06-14 07:02:00,
2013-06-14 03:12:00,54.0,40.0,30.13,NNE,30,3.0,-999.0,59,-99.99,,,-99.99,,2013-06-14 07:12:00,
2013-06-14 03:22:00,52.0,39.0,30.13,NNE,15,2.0,-999.0,60,-99.99,,,-99.99,,2013-06-14 07:22:00,
2013-06-14 03:33:00,52.0,39.0,30.13,NNE,15,2.0,-999.0,60,-99.99,,,-99.99,,2013-06-14 07:33:00,
2013-06-14 03:43:00,53.0,39.0,30.14,NNE,15,3.0,-999.0,58,-99.99,,,-99.99,,2013-06-14 07:43:00,
2013-06-14 03:53:00,53.0,39.0,30.14,NNE,15,3.0,-999.0,58,-99.99,,,-99.99,,2013-06-14 07:53:00,
2013-06-14 04:02:00,52.0,37.0,30.14,NNE,28,2.0,-999.0,57,-99.99,,,-99.99,,2013-06-14 08:02:00,
2013-06-14 04:12:00,51.0,37.0,30.15,North,355,1.0,-999.0,58,-99.99,,,-99.99,,2013-06-14 08:12:00,
2013-06-14 04:23:00,51.0,37.0,30.15,North,355,1.0,-999.0,58,-99.99,,,-99.99,,2013-06-14 08:23:00,
2013-06-14 04:33:00,51.0,37.0,30.16,NNE,28,1.0,-999.0,58,-99.99,,,-99.99,,2013-06-14 08:33:00,
2013-06-14 04:43:00,47.0,37.0,30.16,NNE,28,1.0,-999.0,69,-99.99,,,-99.99,,2013-06-14 08:43:00,
2013-06-14 04:53:00,44.0,37.0,30.16,NNE,28,2.0,-999.0,75,-99.99,,,-99.99,,2013-06-14 08:53:00,
2013-06-14 05:02:00,44.0,37.0,30.16,NNE,28,2.0,-999.0,75,-99.99,,,-99.99,,2013-06-14 09:02:00,
2013-06-14 05:12:00,46.0,36.0,30.17,NNE,19,3.0,-999.0,69,-99.99,,,-99.99,,2013-06-14 09:12:00,
2013-06-14 05:22:00,46.0,36.0,30.17,NNE,19,3.0,-999.0,69,-99.99,,,-99.99,,2013-06-14 09:22:00,
2013-06-14 05:33:00,44.0,37.0,30.17,NNE,19,2.0,-999.0,76,-99.99,,,-99.99,,2013-06-14 09:33:00,
2013-06-14 05:43:00,45.0,37.0,30.17,NNE,24,1.0,-999.0,73,-99.99,,,-99.99,,2013-06-14 09:43:00,
2013-06-14 05:53:00,45.0,37.0,30.17,NNE,24,1.0,-999.0,73,-99.99,,,-99.99,,2013-06-14 09:53:00,
2013-06-14 06:01:00,43.0,36.0,30.18,NNE,22,2.0,-999.0,77,-99.99,,,-99.99,,2013-06-14 10:01:00,
2013-06-14 06:12:00,43.0,36.0,30.19,North,5,3.0,-999.0,76,-99.99,,,-99.99,,2013-06-14 10:12:00,
2013-06-14 06:22:00,43.0,36.0,30.19,North,5,1.0,-999.0,77,-99.99,,,-99.99,,2013-06-14 10:22:00,
2013-06-14 06:34:00,43.0,36.0,30.19,North,5,1.0,-999.0,77,-99.99,,,-99.99,,2013-06-14 10:34:00,
2013-06-14 06:43:00,43.0,37.0,30.19,North,5,1.0,-999.0,78,-99.99,,,-99.99,,2013-06-14 10:43:00,
2013-06-14 06:52:00,43.0,37.0,30.19,North,5,1.0,-999.0,78,-99.99,,,-99.99,,2013-06-14 10:52:00,
2013-06-14 07:02:00,46.0,38.0,30.18,NNE,30,3.0,-999.0,74,-99.99,,,-99.99,,2013-06-14 11:02:00,
2013-06-14 07:11:00,48.0,39.0,30.18,NE,35,3.0,-999.0,70,-99.99,,,-99.99,,2013-06-14 11:11:00,
2013-06-14 07:23:00,48.0,39.0,30.18,NE,35,3.0,-999.0,70,-99.99,,,-99.99,,2013-06-14 11:23:00,
2013-06-14 07:32:00,47.0,39.0,30.18,SE,132,1.0,-999.0,75,-99.99,,,-99.99,,2013-06-14 11:32:00,
2013-06-14 07:43:00,48.0,40.0,30.18,SE,132,0.0,-999.0,75,-99.99,,,-99.99,,2013-06-14 11:43:00,
2013-06-14 07:52:00,51.0,39.0,30.18,ESE,121,0.0,-999.0,64,-99.99,,,-99.99,,2013-06-14 11:52:00,
2013-06-14 08:02:00,51.0,39.0,30.18,ESE,121,0.0,-999.0,64,-99.99,,,-99.99,,2013-06-14 12:02:00,
2013-06-14 08:12:00,53.0,40.0,30.18,NE,36,0.0,-999.0,62,-99.99,,,-99.99,,2013-06-14 12:12:00,
2013-06-14 08:22:00,53.0,40.0,30.18,NE,36,0.0,-999.0,62,-99.99,,,-99.99,,2013-06-14 12:22:00,
2013-06-14 08:33:00,53.0,40.0,30.19,ENE,62,3.0,-999.0,61,-99.99,,,-99.99,,2013-06-14 12:33:00,
2013-06-14 08:43:00,54.0,40.0,30.19,NE,52,2.0,-999.0,60,-99.99,,,-99.99,,2013-06-14 12:43:00,
2013-06-14 08:52:00,54.0,40.0,30.19,NE,52,2.0,-999.0,60,-99.99,,,-99.99,,2013-06-14 12:52:00,
2013-06-14 09:02:00,55.0,41.0,30.19,NNE,25,3.0,-999.0,59,-99.99,,,-99.99,,2013-06-14 13:02:00,
2013-06-14 09:11:00,56.0,41.0,30.20,East,87,2.0,-999.0,56,-99.99,,,-99.99,,2013-06-14 13:11:00,
2013-06-14 09:22:00,57.0,42.0,30.21,North,5,2.0,-999.0,58,-99.99,,,-99.99,,2013-06-14 13:22:00,
2013-06-14 09:33:00,57.0,42.0,30.21,North,5,2.0,-999.0,58,-99.99,,,-99.99,,2013-06-14 13:33:00,
2013-06-14 09:43:00,57.0,42.0,30.22,West,281,2.0,-999.0,57,-99.99,,,-99.99,,2013-06-14 13:43:00,
2013-06-14 09:53:00,57.0,42.0,30.22,NNE,18,3.0,-999.0,57,-99.99,,,-99.99,,2013-06-14 13:53:00,
2013-06-14 10:02:00,57.0,42.0,30.22,NNE,18,3.0,-999.0,57,-99.99,,,-99.99,,2013-06-14 14:02:00,
2013-06-14 10:11:00,58.0,42.0,30.23,NE,38,2.0,-999.0,55,-99.99,,,-99.99,,2013-06-14 14:11:00,
2013-06-14 10:22:00,59.0,44.0,30.23,NNW,347,4.0,-999.0,57,-99.99,,,-99.99,,2013-06-14 14:22:00,
2013-06-14 10:34:00,59.0,44.0,30.23,NNW,347,4.0,-999.0,57,-99.99,,,-99.99,,2013-06-14 14:34:00,
2013-06-14 10:43:00,60.0,44.0,30.22,NNE,33,4.0,-999.0,56,-99.99,,,-99.99,,2013-06-14 14:43:00,
2013-06-14 10:52:00,61.0,42.0,30.22,NE,40,3.0,-999.0,50,-99.99,,,-99.99,,2013-06-14 14:52:00,
2013-06-14 11:02:00,61.0,42.0,30.22,NE,40,3.0,-999.0,50,-99.99,,,-99.99,,2013-06-14 15:02:00,
2013-06-14 11:11:00,61.0,43.0,30.22,ENE,72,2.0,-999.0,52,-99.99,,,-99.99,,2013-06-14 15:11:00,
2013-06-14 11:23:00,62.0,43.0,30.22,SE,146,3.0,-999.0,50,-99.99,,,-99.99,,2013-06-14 15:23:00,
2013-06-14 11:33:00,62.0,43.0,30.22,SE,146,3.0,-999.0,50,-99.99,,,-99.99,,2013-06-14 15:33:00,
2013-06-14 11:44:00,63.0,46.0,30.22,NE,41,2.0,-999.0,53,-99.99,,,-99.99,,2013-06-14 15:44:00,
2013-06-14 11:53:00,63.0,46.0,30.22,NE,41,2.0,-999.0,53,-99.99,,,-99.99,,2013-06-14 15:53:00,
2013-06-14 12:01:00,63.0,43.0,30.22,ENE,78,1.0,-999.0,48,-99.99,,,-99.99,,2013-06-14 16:01:00,
2013-06-14 12:11:00,64.0,47.0,30.21,West,281,3.0,-999.0,55,-99.99,,,-99.99,,2013-06-14 16:11:00,
2013-06-14 12:22:00,64.0,47.0,30.21,West,281,3.0,-999.0,55,-99.99,,,-99.99,,2013-06-14 16:22:00,
2013-06-14 12:33:00,65.0,47.0,30.20,NNE,24,3.0,-999.0,53,-99.99,,,-99.99,,2013-06-14 16:33:00,
2013-06-14 12:43:00,65.0,44.0,30.19,NW,325,2.0,-999.0,47,-99.99,,,-99.99,,2013-06-14 16:43:00,
2013-06-14 12:52:00,66.0,43.0,30.19,NE,49,2.0,-999.0,43,-99.99,,,-99.99,,2013-06-14 16:52:00,
2013-06-14 13:02:00,66.0,43.0,30.19,NE,49,2.0,-999.0,43,-99.99,,,-99.99,,2013-06-14 17:02:00,
2013-06-14 13:12:00,66.0,45.0,30.19,SW,232,2.0,-999.0,47,-99.99,,,-99.99,,2013-06-14 17:12:00,
2013-06-14 13:22:00,66.0,45.0,30.19,SW,232,2.0,-999.0,47,-99.99,,,-99.99,,2013-06-14 17:22:00,
2013-06-14 13:34:00,67.0,47.0,30.18,WNW,283,5.0,-999.0,48,-99.99,,,-99.99,,2013-06-14 17:34:00,
2013-06-14 13:43:00,67.0,47.0,30.18,WNW,284,4.0,-999.0,48,-99.99,,,-99.99,,2013-06-14 17:43:00,
2013-06-14 13:53:00,67.0,45.0,30.17,SSW,198,2.0,-999.0,45,-99.99,,,-99.99,,2013-06-14 17:53:00,
2013-06-14 14:02:00,67.0,45.0,30.17,SSW,198,2.0,-999.0,45,-99.99,,,-99.99,,2013-06-14 18:02:00,
2013-06-14 14:11:00,69.0,45.0,30.17,WNW,284,4.0,-999.0,42,-99.99,,,-99.99,,2013-06-14 18:11:00,
2013-06-14 14:22:00,68.0,46.0,30.17,WNW,288,5.0,-999.0,46,-99.99,,,-99.99,,2013-06-14 18:22:00,
2013-06-14 14:32:00,68.0,46.0,30.17,WNW,288,5.0,-999.0,46,-99.99,,,-99.99,,2013-06-14 18:32:00,
2013-06-14 14:43:00,69.0,44.0,30.16,WNW,302,5.0,-999.0,41,-99.99,,,-99.99,,2013-06-14 18:43:00,
2013-06-14 14:52:00,69.0,44.0,30.16,WNW,302,5.0,-999.0,41,-99.99,,,-99.99,,2013-06-14 18:52:00,
2013-06-14 15:01:00,69.0,46.0,30.16,WNW,297,4.0,-999.0,43,-99.99,,,-99.99,,2013-06-14 19:01:00,
2013-06-14 15:11:00,69.0,46.0,30.16,WNW,286,5.0,-999.0,44,-99.99,,,-99.99,,2013-06-14 19:11:00,
2013-06-14 15:22:00,69.0,47.0,30.16,West,268,8.0,-999.0,46,-99.99,,,-99.99,,2013-06-14 19:22:00,
2013-06-14 15:32:00,69.0,47.0,30.16,West,268,8.0,-999.0,46,-99.99,,,-99.99,,2013-06-14 19:32:00,
2013-06-14 15:43:00,69.0,50.0,30.16,WSW,246,7.0,-999.0,51,-99.99,,,-99.99,,2013-06-14 19:43:00,
2013-06-14 15:53:00,69.0,50.0,30.16,WSW,246,7.0,-999.0,51,-99.99,,,-99.99,,2013-06-14 19:53:00,
2013-06-14 16:02:00,69.0,44.0,30.15,West,272,9.0,-999.0,40,-99.99,,,-99.99,,2013-06-14 20:02:00,
2013-06-14 16:11:00,70.0,48.0,30.14,WNW,294,5.0,-999.0,45,-99.99,,,-99.99,,2013-06-14 20:11:00,
2013-06-14 16:22:00,70.0,48.0,30.14,WNW,294,5.0,-999.0,45,-99.99,,,-99.99,,2013-06-14 20:22:00,
2013-06-14 16:33:00,68.0,46.0,30.14,West,259,6.0,-999.0,45,-99.99,,,-99.99,,2013-06-14 20:33:00,
2013-06-14 16:43:00,69.0,45.0,30.13,WNW,282,6.0,-999.0,42,-99.99,,,-99.99,,2013-06-14 20:43:00,
2013-06-14 16:53:00,69.0,45.0,30.13,WNW,282,6.0,-999.0,42,-99.99,,,-99.99,,2013-06-14 20:53:00,
2013-06-14 17:02:00,70.0,46.0,30.13,WNW,303,5.0,-999.0,42,-99.99,,,-99.99,,2013-06-14 21:02:00,
2013-06-14 17:12:00,69.0,43.0,30.13,WNW,285,6.0,-999.0,39,-99.99,,,-99.99,,2013-06-14 21:12:00,
2013-06-14 17:22:00,70.0,44.0,30.13,West,277,6.0,-999.0,39,-99.99,,,-99.99,,2013-06-14 21:22:00,
2013-06-14 17:34:00,70.0,44.0,30.13,West,277,6.0,-999.0,39,-99.99,,,-99.99,,2013-06-14 21:34:00,
2013-06-14 17:42:00,70.0,44.0,30.12,NW,311,5.0,-999.0,39,-99.99,,,-99.99,,2013-06-14 21:42:00,
2013-06-14 17:52:00,70.0,41.0,30.11,NW,306,5.0,-999.0,35,-99.99,,,-99.99,,2013-06-14 21:52:00,
2013-06-14 18:02:00,70.0,41.0,30.11,NW,306,5.0,-999.0,35,-99.99,,,-99.99,,2013-06-14 22:02:00,
2013-06-14 18:12:00,70.0,43.0,30.11,West,279,5.0,-999.0,38,-99.99,,,-99.99,,2013-06-14 22:12:00,
2013-06-14 18:22:00,70.0,43.0,30.11,NW,315,5.0,-999.0,37,-99.99,,,-99.99,,2013-06-14 22:22:00,
2013-06-14 18:33:00,70.0,43.0,30.11,NW,315,5.0,-999.0,37,-99.99,,,-99.99,,2013-06-14 22:33:00,
2013-06-14 18:43:00,70.0,45.0,30.11,NW,313,5.0,-999.0,40,-99.99,,,-99.99,,2013-06-14 22:43:00,
2013-06-14 18:53:00,70.0,45.0,30.11,NW,313,5.0,-999.0,40,-99.99,,,-99.99,,2013-06-14 22:53:00,
2013-06-14 19:02:00,70.0,44.0,30.10,NW,323,4.0,-999.0,39,-99.99,,,-99.99,,2013-06-14 23:02:00,
2013-06-14 19:12:00,69.0,44.0,30.10,West,273,3.0,-999.0,41,-99.99,,,-99.99,,2013-06-14 23:12:00,
2013-06-14 19:22:00,69.0,44.0,30.10,West,273,3.0,-999.0,41,-99.99,,,-99.99,,2013-06-14 23:22:00,
2013-06-14 19:33:00,69.0,44.0,30.10,WSW,248,4.0,-999.0,40,-99.99,,,-99.99,,2013-06-14 23:33:00,
2013-06-14 19:43:00,68.0,43.0,30.10,WNW,290,4.0,-999.0,40,-99.99,,,-99.99,,2013-06-14 23:43:00,
2013-06-14 19:52:00,68.0,44.0,30.11,WNW,290,3.0,-999.0,42,-99.99,,,-99.99,,2013-06-14 23:52:00,
2013-06-14 20:01:00,68.0,44.0,30.11,WNW,290,3.0,-999.0,42,-99.99,,,-99.99,,2013-06-15 00:01:00,
2013-06-14 20:11:00,66.0,43.0,30.11,WNW,300,4.0,-999.0,44,-99.99,,,-99.99,,2013-06-15 00:11:00,
2013-06-14 20:23:00,66.0,43.0,30.11,WNW,300,4.0,-999.0,44,-99.99,,,-99.99,,2013-06-15 00:23:00,
2013-06-14 20:34:00,65.0,44.0,30.10,WNW,298,3.0,-999.0,47,-99.99,,,-99.99,,2013-06-15 00:34:00,
2013-06-14 20:43:00,64.0,43.0,30.11,WNW,298,3.0,-999.0,47,-99.99,,,-99.99,,2013-06-15 00:43:00,
2013-06-14 20:53:00,64.0,43.0,30.11,WNW,298,3.0,-999.0,47,-99.99,,,-99.99,,2013-06-15 00:53:00,
2013-06-14 21:01:00,63.0,44.0,30.11,WNW,299,2.0,-999.0,50,-99.99,,,-99.99,,2013-06-15 01:01:00,
2013-06-14 21:11:00,61.0,44.0,30.11,WNW,298,0.0,-999.0,53,-99.99,,,-99.99,,2013-06-15 01:11:00,
2013-06-14 21:22:00,61.0,44.0,30.11,WNW,298,0.0,-999.0,53,-99.99,,,-99.99,,2013-06-15 01:22:00,
2013-06-14 21:33:00,59.0,45.0,30.11,WNW,298,0.0,-999.0,59,-99.99,,,-99.99,,2013-06-15 01:33:00,
2013-06-14 21:43:00,59.0,45.0,30.11,WNW,298,0.0,-999.0,59,-99.99,,,-99.99,,2013-06-15 01:43:00,
2013-06-14 21:54:00,56.0,43.0,30.11,WNW,298,0.0,-999.0,61,-99.99,,,-99.99,,2013-06-15 01:54:00,
2013-06-14 22:02:00,56.0,42.0,30.11,WNW,298,0.0,-999.0,60,-99.99,,,-99.99,,2013-06-15 02:02:00,
2013-06-14 22:11:00,54.0,41.0,30.12,WNW,298,0.0,-999.0,62,-99.99,,,-99.99,,2013-06-15 02:11:00,
2013-06-14 22:23:00,54.0,41.0,30.12,WNW,298,0.0,-999.0,62,-99.99,,,-99.99,,2013-06-15 02:23:00,
2013-06-14 22:33:00,54.0,41.0,30.12,WNW,298,0.0,-999.0,62,-99.99,,,-99.99,,2013-06-15 02:33:00,
2013-06-14 22:43:00,52.0,41.0,30.12,WNW,298,0.0,-999.0,65,-99.99,,,-99.99,,2013-06-15 02:43:00,
2013-06-14 22:53:00,50.0,41.0,30.13,WNW,298,1.0,-999.0,70,-99.99,,,-99.99,,2013-06-15 02:53:00,
2013-06-14 23:01:00,50.0,41.0,30.13,WNW,298,1.0,-999.0,70,-99.99,,,-99.99,,2013-06-15 03:01:00,
2013-06-14 23:11:00,50.0,42.0,30.13,WNW,298,0.0,-999.0,74,-99.99,,,-99.99,,2013-06-15 03:11:00,
2013-06-14 23:24:00,50.0,42.0,30.13,WNW,298,0.0,-999.0,74,-99.99,,,-99.99,,2013-06-15 03:24:00,
2013-06-14 23:32:00,50.0,42.0,30.13,WNW,298,0.0,-999.0,74,-99.99,,,-99.99,,2013-06-15 03:32:00,
2013-06-14 23:44:00,48.0,43.0,30.13,WNW,298,2.0,-999.0,83,-99.99,,,-99.99,,2013-06-15 03:44:00,
2013-06-14 23:52:00,48.0,42.0,30.13,WNW,298,0.0,-999.0,81,-99.99,,,-99.99,,2013-06-15 03:52:00,